Watson Lake Airport
CYQH : now visible

Airfield :











YOU CAN JOIN US ON...

 
LOGIN :

Register | Disclaimer

   EN    FR    IT 

 









Legend :    VFR   Marginal VFR   IFR   Intensive IFR   Very Intensive IFR
Visi :
Ceiling :
>= 8 km
>= 3000ft
5 to 8 km
1000 to 3000 ft
1500m to 5 km
500 to 1000 ft
800 to 1500m
200 to 500 ft
< 800m
< 200 ft
Symbols :   Thunderstorms  Fog  Heavy snow  Heavy precipitations  Wind > 20 kt






- Airport Elevation : 2255 ft
- IATA code : YQH


CYQH - Watson Lake

CURRENT METAR :
  • 210900Z 00000KT 20SM BKN110 17/13 A3018 RMK AC7 SLP223 DENSITY ALT 2800FT

EXPIRED METARs :
  • 210800Z 30002KT 20SM SCT120 BKN210 16/10 A3018 RMK AC4CI1 SLP222 DENSITY ALT 2700FT
  • 210700Z 01002KT 20SM SCT110 BKN230 17/10 A3018 RMK AC3CI2 SLP223 DENSITY ALT 2700FT
  • 210600Z 04003KT 30SM SCT110 BKN230 19/11 A3018 RMK AC3CI3 CLIMAT 27.1/18.5/0.0 SLP225 DENSITY ALT 2900FT
  • 210500Z 07002KT 30SM SCT130 BKN230 22/10 A3017 RMK AC4CI2 SLP221 DENSITY ALT 3300FT

TAF TAF CYQH
Valid from the 21 at 06:00 until the 21 at 18:00 UTC


210540Z 2106/2118 VRB03KT P6SM FEW120 SCT200 RMK NXT FCST BY 211200Z
CZEG FIR / North America



MET'MAP, your aeronautical weather chart ! - Copyright ORBIFLY December 2007 - Disclaimer

ORBIFLY MET'MAP TEAM :

Programming & Development : Alexandra Zaïnal
Original concept : Baudouin d'Aumeries
Technical & hardware support : Manuel Goepfert
Assistance : Marc-Olivier Méhu




SOURCES & CREDITS :

   NOAA       Earth
Advisory